Time;durP1;ratioP1;P1;durP2;ratioP2;P2;SDS_P1;SDS_P2;PMS_P1;PMS_P2;Temp;Humidity;BMP_temperature;BMP_pressure;BME280_temperature;BME280_humidity;BME280_pressure;Samples;Min_cycle;Max_cycle;Signal;HPM_P1;HPM_P2
2023/04/30 00:02:25;;;;;;;21.03;14.50;;;11.60;99.90;;;;;;5114446;28;20173;-75
2023/04/30 00:04:50;;;;;;;16.87;12.37;;;11.60;99.90;;;;;;5114483;28;20631;-75
2023/04/30 00:07:16;;;;;;;17.03;12.10;;;11.70;99.90;;;;;;5114900;28;20188;-75
2023/04/30 00:09:42;;;;;;;18.03;11.43;;;11.70;99.90;;;;;;5115211;28;20241;-75
2023/04/30 00:12:07;;;;;;;17.37;11.30;;;11.60;99.90;;;;;;5133241;28;20183;-74
2023/04/30 00:14:33;;;;;;;16.00;11.67;;;11.60;99.90;;;;;;5115032;28;20269;-74
2023/04/30 00:16:59;;;;;;;17.13;11.53;;;11.60;99.90;;;;;;5114735;28;20213;-77
2023/04/30 00:19:24;;;;;;;18.23;11.37;;;11.60;99.90;;;;;;5118855;27;20211;-75
2023/04/30 00:21:50;;;;;;;19.10;12.07;;;11.40;99.90;;;;;;5136809;27;20251;-76
2023/04/30 00:24:16;;;;;;;19.10;11.47;;;11.50;99.90;;;;;;5136782;27;20202;-75
2023/04/30 00:26:42;;;;;;;17.67;11.50;;;11.40;99.90;;;;;;5137176;27;20171;-75
2023/04/30 00:29:09;;;;;;;18.50;11.47;;;11.40;99.90;;;;;;5118695;27;20187;-75
2023/04/30 00:31:35;;;;;;;18.73;11.97;;;11.40;99.90;;;;;;5118675;27;20180;-75
2023/04/30 00:34:01;;;;;;;17.03;11.03;;;11.30;99.90;;;;;;5118826;27;20199;-75
2023/04/30 00:36:26;;;;;;;16.97;11.87;;;11.30;99.90;;;;;;5118765;27;20215;-74
2023/04/30 00:38:52;;;;;;;17.00;11.40;;;11.30;99.90;;;;;;5118596;27;20172;-74
2023/04/30 00:41:19;;;;;;;16.77;11.20;;;11.20;99.90;;;;;;5118849;27;20165;-75
2023/04/30 00:43:46;;;;;;;15.93;10.90;;;11.10;99.90;;;;;;5117847;27;20191;-75
2023/04/30 00:46:11;;;;;;;14.77;10.43;;;11.10;99.90;;;;;;5118498;27;20188;-74
2023/04/30 00:48:38;;;;;;;21.40;10.87;;;11.00;99.90;;;;;;5118697;27;20185;-74
2023/04/30 00:51:04;;;;;;;16.03;10.57;;;11.00;99.90;;;;;;5118585;27;20233;-74
2023/04/30 00:53:31;;;;;;;16.40;10.33;;;11.00;99.90;;;;;;5137247;27;20185;-74
2023/04/30 00:55:57;;;;;;;14.50;9.57;;;10.90;99.90;;;;;;5118336;27;20229;-74
2023/04/30 00:58:23;;;;;;;15.23;10.10;;;10.90;99.90;;;;;;5136532;27;20170;-74
2023/04/30 01:00:50;;;;;;;13.60;10.40;;;10.80;99.90;;;;;;5117681;27;20592;-75
2023/04/30 01:03:16;;;;;;;15.77;10.40;;;10.70;99.90;;;;;;5136581;27;20173;-74
2023/04/30 01:05:43;;;;;;;13.47;9.70;;;10.60;99.90;;;;;;5118303;27;20235;-74
2023/04/30 01:08:09;;;;;;;15.03;9.67;;;10.60;99.90;;;;;;5117811;27;20228;-74
2023/04/30 01:11:14;;;;;;;12.97;9.03;;;10.50;99.90;;;;;;5118626;27;20555;-75
2023/04/30 01:13:50;;;;;;;18.47;10.03;;;10.50;99.90;;;;;;5076832;27;20639;-75
2023/04/30 01:16:25;;;;;;;12.40;9.50;;;10.50;99.90;;;;;;5117988;27;20196;-74
2023/04/30 01:19:04;;;;;;;16.23;9.77;;;10.50;99.90;;;;;;5116466;27;20545;-74
2023/04/30 01:21:32;;;;;;;12.20;8.97;;;10.50;99.90;;;;;;5114763;28;20635;-75
2023/04/30 01:24:13;;;;;;;15.20;9.47;;;10.50;99.90;;;;;;5115382;28;20173;-75
2023/04/30 01:26:56;;;;;;;12.03;8.93;;;10.40;99.90;;;;;;5097594;28;20182;-75
2023/04/30 01:29:25;;;;;;;15.23;10.13;;;10.40;99.90;;;;;;5097105;28;20200;-75
2023/04/30 01:31:51;;;;;;;12.87;8.30;;;10.40;99.90;;;;;;5097713;28;20632;-75
2023/04/30 01:34:18;;;;;;;12.37;9.03;;;10.40;99.90;;;;;;5115714;28;20266;-75
2023/04/30 01:37:02;;;;;;;14.03;9.07;;;10.30;99.90;;;;;;5115624;28;20217;-75
2023/04/30 01:39:49;;;;;;;14.00;8.93;;;10.20;99.90;;;;;;5126859;27;20184;-76
2023/04/30 01:42:24;;;;;;;11.47;8.50;;;10.10;99.90;;;;;;5136109;27;20710;-75
2023/04/30 01:45:21;;;;;;;13.40;9.13;;;10.10;99.90;;;;;;5117189;27;20237;-75
2023/04/30 01:47:47;;;;;;;12.63;8.50;;;10.10;99.90;;;;;;5135968;27;20229;-75
2023/04/30 01:50:33;;;;;;;17.87;9.57;;;10.00;99.90;;;;;;5116531;27;20185;-76
2023/04/30 01:53:05;;;;;;;12.00;9.10;;;10.00;99.90;;;;;;5117314;27;20172;-75
2023/04/30 01:55:41;;;;;;;13.60;9.60;;;10.00;99.90;;;;;;5117618;27;20181;-74
2023/04/30 01:58:11;;;;;;;12.93;8.70;;;10.00;99.90;;;;;;5135996;27;20183;-75
2023/04/30 02:00:38;;;;;;;14.07;9.23;;;9.90;99.90;;;;;;5098631;27;20228;-76
2023/04/30 02:03:04;;;;;;;10.23;8.70;;;10.00;99.90;;;;;;5117082;27;20185;-74
2023/04/30 02:05:30;;;;;;;14.20;9.27;;;9.90;99.90;;;;;;5117102;27;20174;-74
2023/04/30 02:07:56;;;;;;;12.60;9.23;;;9.90;99.90;;;;;;5116940;27;20676;-75
2023/04/30 02:10:23;;;;;;;13.57;8.77;;;9.90;99.90;;;;;;5117892;27;20586;-75
2023/04/30 02:12:49;;;;;;;12.33;8.93;;;9.90;99.90;;;;;;5096608;28;20208;-76
2023/04/30 02:15:15;;;;;;;11.63;8.70;;;9.90;99.90;;;;;;5095940;28;20170;-74
2023/04/30 02:17:41;;;;;;;13.13;9.13;;;9.90;99.90;;;;;;5095970;28;20711;-75
2023/04/30 02:20:07;;;;;;;12.50;9.00;;;9.90;99.90;;;;;;5096287;28;20570;-75
2023/04/30 02:22:35;;;;;;;13.47;8.80;;;9.90;99.90;;;;;;5114361;28;20178;-75
2023/04/30 02:25:02;;;;;;;13.40;8.93;;;9.90;99.90;;;;;;5096059;28;20219;-75
2023/04/30 02:27:29;;;;;;;14.17;8.60;;;9.90;99.90;;;;;;5114473;28;20174;-75
2023/04/30 02:29:55;;;;;;;13.40;8.93;;;9.90;99.90;;;;;;5114354;28;20237;-75
2023/04/30 02:32:21;;;;;;;12.03;8.30;;;9.90;99.90;;;;;;5096139;28;20193;-75
2023/04/30 02:34:46;;;;;;;12.77;8.33;;;9.80;99.90;;;;;;5114533;28;20173;-75
2023/04/30 02:37:12;;;;;;;12.80;8.30;;;9.80;99.90;;;;;;5095849;28;20214;-75
2023/04/30 02:39:38;;;;;;;13.60;7.80;;;9.70;99.90;;;;;;5113900;28;20166;-76
2023/04/30 02:42:05;;;;;;;9.57;7.77;;;9.70;99.90;;;;;;5095553;28;20650;-76
2023/04/30 02:44:31;;;;;;;11.17;7.97;;;9.80;99.90;;;;;;5095652;28;20667;-75
2023/04/30 02:46:57;;;;;;;12.37;7.47;;;9.70;99.90;;;;;;5128915;27;20272;-76
2023/04/30 02:49:25;;;;;;;10.60;7.40;;;9.70;99.90;;;;;;5116388;27;20205;-76
2023/04/30 02:51:51;;;;;;;12.40;7.83;;;9.70;99.90;;;;;;5115666;27;20200;-75
2023/04/30 02:54:17;;;;;;;12.47;8.10;;;9.60;99.90;;;;;;5115829;27;20221;-76
2023/04/30 02:56:45;;;;;;;10.23;8.03;;;9.60;99.90;;;;;;5115038;27;20386;-75
2023/04/30 02:59:11;;;;;;;11.93;8.23;;;9.70;99.90;;;;;;5133705;27;20242;-76
2023/04/30 03:01:36;;;;;;;13.27;8.27;;;9.70;99.90;;;;;;5110816;28;20639;-75
2023/04/30 03:04:03;;;;;;;13.97;8.07;;;9.60;99.90;;;;;;5111992;28;20177;-73
2023/04/30 03:06:30;;;;;;;12.40;8.10;;;9.40;99.90;;;;;;5115203;27;20192;-74
2023/04/30 03:08:55;;;;;;;12.07;8.37;;;9.40;99.90;;;;;;5134141;27;20189;-74
2023/04/30 03:11:21;;;;;;;11.90;9.00;;;9.50;99.90;;;;;;5115714;27;20214;-74
2023/04/30 03:13:50;;;;;;;12.43;7.87;;;9.50;99.90;;;;;;5133501;27;20169;-75
2023/04/30 03:16:20;;;;;;;11.30;7.60;;;9.50;99.90;;;;;;5115199;27;20233;-74
2023/04/30 03:18:46;;;;;;;12.83;8.13;;;9.40;99.90;;;;;;5114866;27;20176;-74
2023/04/30 03:21:13;;;;;;;10.23;7.97;;;9.30;99.90;;;;;;5133912;27;20230;-75
2023/04/30 03:23:39;;;;;;;11.53;8.20;;;9.30;99.90;;;;;;5134422;27;20265;-76
2023/04/30 03:26:05;;;;;;;10.47;7.47;;;9.30;99.90;;;;;;5115677;27;20228;-75
2023/04/30 03:28:31;;;;;;;12.20;7.77;;;9.30;99.90;;;;;;5115507;27;20197;-74
2023/04/30 03:30:58;;;;;;;13.87;7.80;;;9.20;99.90;;;;;;5133460;28;20169;-74
2023/04/30 03:33:23;;;;;;;11.47;8.03;;;9.20;99.90;;;;;;5116125;28;20177;-75
2023/04/30 03:35:50;;;;;;;11.37;7.83;;;9.10;99.90;;;;;;5115753;28;20588;-74
2023/04/30 03:38:16;;;;;;;10.93;8.10;;;9.00;99.90;;;;;;5134191;28;20215;-74
2023/04/30 03:40:46;;;;;;;8.93;7.23;;;9.00;99.90;;;;;;5115969;28;20177;-75
2023/04/30 03:43:12;;;;;;;12.00;7.70;;;9.00;99.90;;;;;;5116035;28;20177;-75
2023/04/30 03:45:37;;;;;;;11.17;7.97;;;8.90;99.90;;;;;;5115695;28;20188;-74
2023/04/30 03:48:04;;;;;;;12.70;8.13;;;8.90;99.90;;;;;;5133549;28;20651;-75
2023/04/30 03:50:30;;;;;;;13.30;8.73;;;8.90;99.90;;;;;;5115737;28;20173;-75
2023/04/30 03:52:56;;;;;;;14.03;8.20;;;9.00;99.90;;;;;;5118277;27;20173;-75
2023/04/30 03:55:22;;;;;;;11.07;7.60;;;9.00;99.90;;;;;;5119705;27;20226;-76
2023/04/30 03:57:48;;;;;;;11.43;7.57;;;8.90;99.90;;;;;;5119478;27;20669;-76
2023/04/30 04:00:14;;;;;;;12.60;8.40;;;8.80;99.90;;;;;;5137729;27;20241;-75
2023/04/30 04:02:40;;;;;;;15.20;8.87;;;8.90;99.90;;;;;;5118987;27;20177;-74
2023/04/30 04:05:06;;;;;;;10.60;7.67;;;8.80;99.90;;;;;;5116635;27;20173;-73
2023/04/30 04:07:32;;;;;;;16.40;8.93;;;8.80;99.90;;;;;;5137309;27;20188;-76
2023/04/30 04:09:58;;;;;;;10.17;7.73;;;8.80;99.90;;;;;;5136500;27;20182;-75
2023/04/30 04:12:23;;;;;;;13.20;8.13;;;8.80;99.90;;;;;;5119021;27;20177;-75
2023/04/30 04:14:50;;;;;;;12.70;8.23;;;8.80;99.90;;;;;;5119274;27;20264;-75
2023/04/30 04:17:16;;;;;;;11.13;7.87;;;8.80;99.90;;;;;;5137057;27;20685;-75
2023/04/30 04:19:42;;;;;;;11.83;8.17;;;8.80;99.90;;;;;;5138086;27;20181;-75
2023/04/30 04:22:07;;;;;;;13.77;9.07;;;8.80;99.90;;;;;;5118708;27;20169;-75
2023/04/30 04:24:34;;;;;;;13.37;8.10;;;8.80;99.90;;;;;;5119076;27;20192;-75
2023/04/30 04:27:01;;;;;;;13.50;8.63;;;8.60;99.90;;;;;;5119120;27;20173;-75
2023/04/30 04:29:29;;;;;;;12.83;8.27;;;8.60;99.90;;;;;;5096264;28;20255;-75
2023/04/30 04:31:55;;;;;;;13.83;8.00;;;8.70;99.90;;;;;;5078582;28;20170;-75
2023/04/30 04:34:21;;;;;;;14.10;8.37;;;8.60;99.90;;;;;;5078240;28;20175;-74
2023/04/30 04:36:46;;;;;;;13.37;8.03;;;8.70;99.90;;;;;;5078522;28;20210;-74
2023/04/30 04:39:12;;;;;;;12.57;8.73;;;8.70;99.90;;;;;;5131463;27;20195;-74
2023/04/30 04:41:37;;;;;;;11.40;8.63;;;8.70;99.90;;;;;;5118934;27;20206;-74
2023/04/30 04:44:04;;;;;;;13.53;8.67;;;8.70;99.90;;;;;;5118869;27;20169;-76
2023/04/30 04:46:31;;;;;;;13.77;8.80;;;8.90;99.90;;;;;;5118728;27;20607;-76
2023/04/30 04:48:59;;;;;;;13.33;8.97;;;8.90;99.90;;;;;;5118178;27;20177;-74
2023/04/30 04:51:25;;;;;;;10.43;7.83;;;8.80;99.90;;;;;;5118570;27;20177;-74
2023/04/30 04:53:51;;;;;;;12.70;8.47;;;8.80;99.90;;;;;;5117704;27;20172;-74
2023/04/30 04:56:17;;;;;;;14.63;9.00;;;8.80;99.90;;;;;;5118310;27;20193;-74
2023/04/30 04:58:44;;;;;;;15.60;8.93;;;8.80;99.90;;;;;;5105638;28;20516;-74
2023/04/30 05:01:10;;;;;;;14.23;8.73;;;8.80;99.90;;;;;;5097816;28;20570;-74
2023/04/30 05:03:36;;;;;;;13.40;8.20;;;8.90;99.90;;;;;;5115653;28;20260;-74
2023/04/30 05:06:05;;;;;;;14.70;8.93;;;8.90;99.90;;;;;;5097524;28;20182;-75
2023/04/30 05:08:31;;;;;;;12.53;9.03;;;8.90;99.90;;;;;;5115660;28;20258;-76
2023/04/30 05:10:57;;;;;;;14.87;9.37;;;9.10;99.90;;;;;;5115945;28;20195;-75
2023/04/30 05:13:22;;;;;;;12.60;8.83;;;9.20;99.90;;;;;;5097560;28;20177;-75
2023/04/30 05:15:51;;;;;;;14.87;9.20;;;9.20;99.90;;;;;;5097904;28;20190;-75
2023/04/30 05:18:19;;;;;;;14.97;9.43;;;9.20;99.90;;;;;;5097819;28;20197;-75
2023/04/30 05:20:44;;;;;;;14.10;8.83;;;9.20;99.90;;;;;;5097657;28;20166;-75
2023/04/30 05:23:11;;;;;;;12.50;8.70;;;9.10;99.90;;;;;;5097903;28;20177;-76
2023/04/30 05:25:37;;;;;;;16.07;9.47;;;9.10;99.90;;;;;;5126695;27;20177;-77
2023/04/30 05:28:03;;;;;;;14.13;9.73;;;9.20;99.90;;;;;;5117046;27;20177;-76
2023/04/30 05:30:29;;;;;;;13.13;9.20;;;9.20;99.90;;;;;;5118160;27;20264;-76
2023/04/30 05:32:56;;;;;;;15.10;10.07;;;9.30;99.90;;;;;;5117908;27;20204;-76
2023/04/30 05:35:22;;;;;;;14.13;9.40;;;9.20;99.90;;;;;;5117128;27;20257;-76
2023/04/30 05:37:49;;;;;;;13.07;9.53;;;9.40;99.90;;;;;;5117655;27;20566;-74
2023/04/30 05:40:15;;;;;;;17.30;9.43;;;9.30;99.90;;;;;;5136198;27;20161;-76
2023/04/30 05:42:42;;;;;;;15.60;10.00;;;9.30;99.90;;;;;;5117605;27;20545;-76
2023/04/30 05:45:11;;;;;;;13.13;9.23;;;9.50;99.90;;;;;;5117230;27;20169;-74
2023/04/30 05:47:37;;;;;;;15.77;9.97;;;9.50;99.90;;;;;;5117659;27;20603;-75
2023/04/30 05:50:03;;;;;;;14.87;10.00;;;9.50;99.90;;;;;;5116892;27;20177;-75
2023/04/30 05:52:29;;;;;;;15.53;10.47;;;9.60;99.90;;;;;;5103192;28;20186;-77
2023/04/30 05:54:54;;;;;;;14.83;9.97;;;9.70;99.90;;;;;;5096973;28;20585;-75
2023/04/30 05:57:21;;;;;;;16.50;11.00;;;9.70;99.90;;;;;;5111861;27;20285;-76
2023/04/30 05:59:46;;;;;;;18.37;11.70;;;9.70;99.90;;;;;;5117139;27;20597;-75
2023/04/30 06:02:12;;;;;;;17.03;12.17;;;9.80;99.90;;;;;;5128872;27;20196;-76
2023/04/30 06:04:38;;;;;;;17.43;12.43;;;10.00;99.90;;;;;;5135672;27;20172;-76
2023/04/30 06:07:04;;;;;;;20.80;13.10;;;9.90;99.90;;;;;;5111856;27;20230;-75
2023/04/30 06:09:29;;;;;;;20.03;13.23;;;10.00;99.90;;;;;;5109061;28;20197;-76
2023/04/30 06:11:55;;;;;;;20.50;13.40;;;10.10;99.90;;;;;;5113680;28;20253;-75
2023/04/30 06:14:21;;;;;;;20.07;13.37;;;10.10;99.90;;;;;;5097377;28;20178;-75
2023/04/30 06:16:50;;;;;;;17.63;13.03;;;10.20;99.90;;;;;;5095693;28;20552;-75
2023/04/30 06:19:17;;;;;;;21.33;12.90;;;10.40;99.90;;;;;;5096174;28;20193;-75
2023/04/30 06:21:42;;;;;;;18.47;13.27;;;10.50;99.90;;;;;;5114496;28;20527;-76
2023/04/30 06:24:08;;;;;;;17.87;12.80;;;10.50;99.90;;;;;;5114383;28;20170;-75
2023/04/30 06:26:34;;;;;;;17.83;12.37;;;10.60;99.90;;;;;;5096194;28;20171;-75
2023/04/30 06:29:00;;;;;;;22.13;12.83;;;10.80;99.90;;;;;;5096015;28;20177;-75
2023/04/30 06:31:26;;;;;;;19.83;13.40;;;10.80;99.90;;;;;;5096046;28;20178;-75
2023/04/30 06:33:52;;;;;;;17.73;13.50;;;10.80;99.90;;;;;;5096188;28;20675;-75
2023/04/30 06:36:18;;;;;;;19.00;13.23;;;10.90;99.90;;;;;;5098862;28;20214;-75
2023/04/30 06:38:45;;;;;;;17.27;12.60;;;11.00;99.90;;;;;;5096065;28;20639;-75
2023/04/30 06:41:11;;;;;;;20.43;13.67;;;11.10;99.90;;;;;;5095823;28;20317;-75
2023/04/30 06:43:37;;;;;;;17.03;12.87;;;11.20;99.90;;;;;;5114025;27;20201;-76
2023/04/30 06:46:03;;;;;;;20.80;14.20;;;11.30;99.90;;;;;;5114662;27;20314;-75
2023/04/30 06:48:29;;;;;;;20.83;13.87;;;11.40;99.90;;;;;;5105885;27;20365;-75
2023/04/30 06:50:55;;;;;;;19.93;13.43;;;11.60;99.90;;;;;;5115519;27;20205;-76
2023/04/30 06:53:21;;;;;;;21.03;14.37;;;11.50;99.90;;;;;;5122783;27;20635;-75
2023/04/30 06:55:47;;;;;;;24.67;14.57;;;11.60;99.90;;;;;;5108074;28;20179;-75
2023/04/30 06:58:13;;;;;;;22.63;14.93;;;11.80;99.90;;;;;;5109938;27;20205;-75
2023/04/30 07:00:40;;;;;;;20.87;14.87;;;11.90;99.90;;;;;;5115655;27;20168;-74
2023/04/30 07:03:06;;;;;;;20.43;14.70;;;12.00;99.90;;;;;;5116416;27;20703;-74
2023/04/30 07:05:36;;;;;;;27.37;16.13;;;12.10;99.90;;;;;;5115829;27;20251;-75
2023/04/30 07:08:03;;;;;;;21.10;14.43;;;12.20;99.90;;;;;;5115957;27;20272;-75
2023/04/30 07:10:30;;;;;;;21.50;14.77;;;12.30;99.90;;;;;;5116085;27;20187;-74
2023/04/30 07:12:55;;;;;;;20.20;13.63;;;12.10;99.90;;;;;;5114715;28;20209;-75
2023/04/30 07:15:23;;;;;;;21.13;13.90;;;12.20;99.90;;;;;;5113542;28;20718;-74
2023/04/30 07:17:50;;;;;;;24.07;14.57;;;12.20;99.90;;;;;;5095002;28;20201;-75
2023/04/30 07:20:17;;;;;;;18.97;14.13;;;12.30;99.90;;;;;;5113720;28;20252;-75
2023/04/30 07:22:44;;;;;;;21.43;14.30;;;12.50;99.90;;;;;;5113526;28;20165;-74
2023/04/30 07:25:11;;;;;;;21.00;14.90;;;12.50;99.90;;;;;;5133015;27;20275;-74
2023/04/30 07:27:37;;;;;;;24.43;14.77;;;12.50;99.90;;;;;;5118659;27;20184;-74
2023/04/30 07:30:04;;;;;;;24.20;14.90;;;12.70;99.90;;;;;;5096464;28;20189;-74
2023/04/30 07:32:29;;;;;;;20.40;14.63;;;12.80;99.90;;;;;;5113558;28;20173;-74
2023/04/30 07:34:55;;;;;;;20.00;14.90;;;12.90;99.90;;;;;;5095698;28;20167;-76
2023/04/30 07:37:22;;;;;;;21.30;14.53;;;12.90;99.90;;;;;;5094961;28;20662;-74
2023/04/30 07:39:48;;;;;;;22.60;15.27;;;12.90;99.90;;;;;;5095950;28;20531;-74
2023/04/30 07:42:13;;;;;;;25.07;15.30;;;13.00;99.90;;;;;;5113948;28;20165;-76
2023/04/30 07:44:40;;;;;;;20.87;14.37;;;13.10;99.90;;;;;;5114136;28;20597;-75
2023/04/30 07:47:06;;;;;;;22.87;14.53;;;13.30;99.90;;;;;;5113960;28;20170;-75
2023/04/30 07:49:32;;;;;;;18.53;14.50;;;13.40;99.90;;;;;;5097404;28;20229;-76
2023/04/30 07:51:59;;;;;;;20.17;14.87;;;13.50;99.90;;;;;;5135027;28;20199;-75
2023/04/30 07:54:25;;;;;;;24.23;15.73;;;13.70;99.90;;;;;;5115832;28;20176;-75
2023/04/30 07:56:51;;;;;;;21.67;15.83;;;13.70;99.90;;;;;;5134371;28;20208;-76
2023/04/30 07:59:16;;;;;;;23.27;15.17;;;13.90;99.90;;;;;;5115414;28;20209;-76
2023/04/30 08:01:42;;;;;;;22.63;14.73;;;13.80;99.90;;;;;;5109348;28;20201;-76
2023/04/30 08:04:08;;;;;;;21.33;14.93;;;13.90;99.90;;;;;;5104617;28;20181;-75
2023/04/30 08:06:33;;;;;;;24.60;16.00;;;14.00;99.90;;;;;;5134571;28;20178;-76
2023/04/30 08:09:00;;;;;;;21.07;15.43;;;14.20;99.90;;;;;;5116148;28;20201;-75
2023/04/30 08:11:26;;;;;;;22.07;14.87;;;14.30;99.90;;;;;;5133435;28;20232;-75
2023/04/30 08:13:52;;;;;;;19.80;14.53;;;14.40;99.90;;;;;;5114997;28;20279;-75
2023/04/30 08:16:19;;;;;;;19.73;13.70;;;14.30;99.90;;;;;;5114467;28;20202;-75
2023/04/30 08:18:45;;;;;;;18.40;14.57;;;14.50;99.90;;;;;;5112881;28;20180;-74
2023/04/30 08:21:15;;;;;;;18.07;14.20;;;14.60;99.90;;;;;;5094547;28;20209;-76
2023/04/30 08:23:40;;;;;;;21.93;14.93;;;14.70;99.90;;;;;;5094392;28;20267;-75
2023/04/30 08:26:06;;;;;;;17.73;14.03;;;14.80;99.90;;;;;;5112869;28;20212;-75
2023/04/30 08:28:32;;;;;;;22.17;14.53;;;14.90;99.90;;;;;;5112707;28;20354;-75
2023/04/30 08:30:57;;;;;;;22.83;14.17;;;15.10;99.90;;;;;;5113047;28;20248;-75
2023/04/30 08:33:24;;;;;;;20.60;14.97;;;14.80;99.90;;;;;;5113201;28;20186;-76
2023/04/30 08:35:50;;;;;;;21.40;15.03;;;14.80;99.90;;;;;;5113570;28;20166;-75
2023/04/30 08:38:16;;;;;;;19.17;14.67;;;15.10;99.90;;;;;;5111933;28;20258;-75
2023/04/30 08:40:47;;;;;;;19.20;15.13;;;15.20;99.90;;;;;;5115234;28;20205;-76
2023/04/30 08:43:15;;;;;;;19.10;14.57;;;15.40;99.90;;;;;;5116595;28;20235;-75
2023/04/30 08:45:41;;;;;;;20.73;14.77;;;15.60;99.90;;;;;;5114980;28;20554;-76
2023/04/30 08:48:15;;;;;;;19.83;14.77;;;15.70;99.90;;;;;;5114857;28;20209;-76
2023/04/30 08:50:40;;;;;;;17.80;13.77;;;15.80;99.90;;;;;;5118696;27;20706;-76
2023/04/30 08:53:07;;;;;;;18.77;13.90;;;15.80;99.90;;;;;;5137423;27;20158;-76
2023/04/30 08:55:33;;;;;;;19.60;13.87;;;15.80;99.90;;;;;;5137576;27;20304;-75
2023/04/30 08:58:00;;;;;;;18.80;14.20;;;16.00;99.90;;;;;;5118456;27;20696;-75
2023/04/30 09:00:27;;;;;;;15.93;12.30;;;16.10;99.90;;;;;;5119236;27;20698;-75
2023/04/30 09:02:52;;;;;;;18.60;13.60;;;16.00;99.90;;;;;;5118141;27;20272;-74
2023/04/30 09:05:18;;;;;;;19.13;13.33;;;16.10;99.90;;;;;;5137237;27;20224;-74
2023/04/30 09:07:46;;;;;;;15.83;11.30;;;16.20;99.90;;;;;;5118592;27;20663;-75
2023/04/30 09:10:20;;;;;;;15.53;11.40;;;16.10;99.90;;;;;;5118028;27;20184;-75
2023/04/30 09:13:08;;;;;;;19.03;13.20;;;16.00;99.90;;;;;;5118346;27;20175;-76
2023/04/30 09:15:36;;;;;;;16.37;13.10;;;16.10;99.90;;;;;;5113113;28;20229;-76
2023/04/30 09:18:20;;;;;;;19.57;13.07;;;16.30;99.90;;;;;;5115654;28;20216;-75
2023/04/30 09:21:00;;;;;;;16.07;11.57;;;16.50;99.90;;;;;;5115533;28;20227;-75
2023/04/30 09:23:26;;;;;;;18.53;12.77;;;16.60;99.90;;;;;;5096660;28;20168;-75
2023/04/30 09:25:52;;;;;;;17.70;13.57;;;16.70;99.90;;;;;;5097230;28;20192;-75
2023/04/30 09:28:22;;;;;;;21.80;13.43;;;16.80;99.90;;;;;;5097029;28;20591;-75
2023/04/30 09:30:51;;;;;;;17.07;12.13;;;16.90;99.90;;;;;;5096511;28;20211;-75
2023/04/30 09:33:17;;;;;;;17.17;12.50;;;16.90;99.90;;;;;;5112207;27;20186;-75
2023/04/30 09:35:43;;;;;;;17.30;11.67;;;16.80;99.90;;;;;;5115300;28;20606;-75
2023/04/30 09:38:26;;;;;;;15.33;11.30;;;16.80;99.90;;;;;;5114713;28;20221;-75
2023/04/30 09:40:52;;;;;;;14.40;10.37;;;16.90;99.90;;;;;;5115299;28;20163;-75
2023/04/30 09:43:18;;;;;;;15.70;10.57;;;17.00;99.90;;;;;;5115077;28;20159;-77
2023/04/30 09:45:51;;;;;;;17.53;10.33;;;17.10;99.90;;;;;;5113944;27;20706;-75
2023/04/30 09:48:23;;;;;;;16.60;10.77;;;17.30;99.90;;;;;;5100139;28;20214;-76
2023/04/30 09:50:50;;;;;;;15.53;10.40;;;17.40;99.90;;;;;;5096670;28;20178;-76
2023/04/30 09:53:16;;;;;;;11.43;8.87;;;17.30;99.90;;;;;;5115310;28;20267;-76
2023/04/30 09:55:45;;;;;;;11.53;8.23;;;17.30;99.90;;;;;;5135297;27;20203;-76
2023/04/30 09:58:11;;;;;;;13.93;9.07;;;17.20;99.90;;;;;;5116903;27;20339;-75
2023/04/30 10:00:38;;;;;;;13.43;8.87;;;17.40;99.90;;;;;;5114764;27;20174;-75
2023/04/30 10:03:09;;;;;;;13.67;9.83;;;17.50;99.90;;;;;;5096639;28;20201;-76
2023/04/30 10:05:42;;;;;;;11.63;8.83;;;17.60;99.90;;;;;;5096233;28;20259;-76
2023/04/30 10:08:33;;;;;;;12.63;9.13;;;17.90;99.90;;;;;;5111066;28;20258;-76
2023/04/30 10:11:03;;;;;;;12.07;8.50;;;18.00;99.90;;;;;;5114333;28;20255;-76
2023/04/30 10:13:41;;;;;;;11.07;8.43;;;18.10;99.90;;;;;;5113096;28;20181;-76
2023/04/30 10:16:17;;;;;;;10.67;8.00;;;18.10;99.90;;;;;;5114187;28;20172;-76
2023/04/30 10:18:47;;;;;;;13.27;8.30;;;18.00;99.90;;;;;;5114009;27;20237;-76
2023/04/30 10:21:16;;;;;;;12.07;8.10;;;18.00;99.90;;;;;;5096448;28;20347;-76
2023/04/30 10:23:43;;;;;;;10.37;7.73;;;18.10;99.90;;;;;;5114578;28;20157;-77
2023/04/30 10:26:12;;;;;;;14.23;8.47;;;18.00;99.90;;;;;;5114040;28;20181;-76
2023/04/30 10:28:39;;;;;;;10.27;7.60;;;18.20;99.70;;;;;;5113682;28;20171;-76
2023/04/30 10:31:07;;;;;;;9.00;7.17;;;18.20;99.50;;;;;;5104618;28;20180;-75
2023/04/30 10:33:35;;;;;;;12.33;7.60;;;18.20;99.00;;;;;;5096206;28;20185;-75
2023/04/30 10:36:05;;;;;;;9.20;7.00;;;18.30;98.60;;;;;;5103541;27;20175;-77
2023/04/30 10:38:33;;;;;;;8.37;6.60;;;18.40;98.30;;;;;;5117410;27;20207;-76
2023/04/30 10:41:00;;;;;;;11.13;7.60;;;18.40;98.50;;;;;;5136190;27;20316;-78
2023/04/30 10:43:29;;;;;;;10.97;6.97;;;18.40;98.30;;;;;;5135200;27;20185;-77
2023/04/30 10:45:57;;;;;;;8.30;6.10;;;18.70;98.10;;;;;;5135107;27;20169;-76
2023/04/30 10:48:27;;;;;;;9.27;5.80;;;18.70;96.70;;;;;;5132602;27;20177;-77
2023/04/30 10:50:55;;;;;;;8.67;5.70;;;18.80;96.40;;;;;;5114705;27;20172;-77
2023/04/30 10:53:30;;;;;;;7.87;5.23;;;18.90;96.40;;;;;;5114080;28;20635;-77
2023/04/30 10:56:07;;;;;;;8.87;6.77;;;19.00;96.20;;;;;;5113248;28;20180;-77
2023/04/30 10:58:35;;;;;;;9.13;6.93;;;19.20;96.30;;;;;;5115823;27;20173;-77
2023/04/30 11:01:01;;;;;;;8.10;5.93;;;19.50;95.60;;;;;;5133288;27;20172;-75
2023/04/30 11:03:31;;;;;;;7.57;5.53;;;19.70;95.60;;;;;;5131005;27;20176;-76
2023/04/30 11:05:58;;;;;;;7.57;6.10;;;19.70;95.60;;;;;;5095118;28;20174;-76
2023/04/30 11:08:38;;;;;;;8.33;6.67;;;19.90;94.80;;;;;;5095081;28;20232;-76
2023/04/30 11:11:08;;;;;;;9.30;6.70;;;20.30;94.00;;;;;;5113569;28;20176;-76
2023/04/30 11:13:42;;;;;;;7.17;5.10;;;20.70;93.80;;;;;;5113546;28;20687;-76
2023/04/30 11:16:08;;;;;;;8.20;5.73;;;21.10;92.50;;;;;;5113501;28;20535;-77
2023/04/30 11:18:39;;;;;;;8.30;6.43;;;21.20;92.50;;;;;;5116562;28;20174;-76
2023/04/30 11:21:07;;;;;;;8.00;5.40;;;21.60;91.90;;;;;;5113474;28;20169;-76
2023/04/30 11:23:34;;;;;;;6.67;4.73;;;21.40;91.10;;;;;;5113454;28;20184;-76
2023/04/30 11:26:00;;;;;;;7.00;4.17;;;21.40;91.30;;;;;;5112736;28;20218;-76
2023/04/30 11:28:27;;;;;;;7.70;4.90;;;21.40;91.00;;;;;;5116392;27;20178;-76
2023/04/30 11:30:59;;;;;;;7.43;4.77;;;21.20;91.30;;;;;;5130788;27;20556;-76
2023/04/30 11:33:27;;;;;;;5.60;4.80;;;21.20;90.70;;;;;;5132082;28;20173;-76
2023/04/30 11:35:55;;;;;;;6.13;3.47;;;20.90;90.90;;;;;;5112627;28;20216;-76
2023/04/30 11:38:29;;;;;;;7.00;4.17;;;21.20;90.40;;;;;;5112641;28;20202;-75
2023/04/30 11:40:57;;;;;;;5.97;4.30;;;21.30;90.50;;;;;;5094893;28;20247;-77
2023/04/30 11:43:24;;;;;;;7.33;4.50;;;21.50;90.40;;;;;;5113202;28;20633;-77
2023/04/30 11:46:02;;;;;;;5.83;4.30;;;22.30;89.80;;;;;;5116448;28;20173;-78
2023/04/30 11:48:46;;;;;;;7.97;4.17;;;23.00;86.90;;;;;;5133993;28;20183;-77
2023/04/30 11:51:14;;;;;;;7.50;4.53;;;23.20;85.90;;;;;;5133800;28;20193;-77
2023/04/30 11:53:40;;;;;;;5.73;4.23;;;22.90;86.30;;;;;;5115230;28;20189;-77
2023/04/30 11:56:07;;;;;;;6.87;4.77;;;22.40;86.70;;;;;;5114973;28;20260;-77
2023/04/30 11:58:38;;;;;;;5.43;4.37;;;22.10;87.20;;;;;;5115242;28;20181;-77
2023/04/30 12:01:05;;;;;;;5.40;4.43;;;22.10;87.20;;;;;;5115339;28;20209;-77
2023/04/30 12:03:32;;;;;;;5.03;3.97;;;22.30;87.00;;;;;;5114934;28;20177;-77
2023/04/30 12:06:03;;;;;;;5.03;4.03;;;22.70;86.10;;;;;;5133438;28;20161;-77
2023/04/30 12:08:29;;;;;;;8.60;4.67;;;23.30;85.10;;;;;;5113002;28;20201;-77
2023/04/30 12:10:55;;;;;;;6.00;4.33;;;23.60;83.20;;;;;;5112604;28;20166;-77
2023/04/30 12:13:20;;;;;;;6.43;4.30;;;23.50;83.70;;;;;;5114763;28;20308;-77
2023/04/30 12:15:58;;;;;;;6.17;4.53;;;23.10;84.30;;;;;;5117147;27;20703;-77
2023/04/30 12:18:25;;;;;;;8.27;4.00;;;23.60;84.30;;;;;;5099743;27;20209;-77
2023/04/30 12:20:51;;;;;;;4.60;4.10;;;24.40;82.80;;;;;;5104632;28;20650;-77
2023/04/30 12:23:19;;;;;;;5.20;4.70;;;25.00;80.20;;;;;;5128494;27;20184;-77
2023/04/30 12:25:46;;;;;;;5.23;4.73;;;24.60;79.90;;;;;;5133617;27;20645;-76
2023/04/30 12:28:11;;;;;;;7.03;4.60;;;24.40;80.40;;;;;;5136187;27;20177;-76
2023/04/30 12:30:37;;;;;;;6.20;4.97;;;24.00;82.20;;;;;;5126718;27;20200;-75
2023/04/30 12:33:03;;;;;;;5.83;4.73;;;24.30;81.20;;;;;;5130135;27;20238;-76
2023/04/30 12:35:30;;;;;;;5.03;3.97;;;24.90;79.10;;;;;;5120190;27;20180;-76
2023/04/30 12:38:06;;;;;;;5.83;4.63;;;25.80;77.60;;;;;;5135152;27;20299;-77
2023/04/30 12:40:32;;;;;;;5.97;4.20;;;25.40;75.30;;;;;;5118379;27;20532;-78
2023/04/30 12:43:06;;;;;;;7.50;4.87;;;25.20;75.90;;;;;;5106517;27;20177;-76